sensor_id;sensor_type;location;lat;lon;timestamp;temperature;humidity
5639;DHT22;2841;44.526;11.360;2023-04-16T00:01:55;11.00;65.90
5639;DHT22;2841;44.526;11.360;2023-04-16T00:04:22;11.00;66.10
5639;DHT22;2841;44.526;11.360;2023-04-16T00:06:49;11.00;66.20
5639;DHT22;2841;44.526;11.360;2023-04-16T00:09:16;11.10;66.70
5639;DHT22;2841;44.526;11.360;2023-04-16T00:11:43;11.10;66.20
5639;DHT22;2841;44.526;11.360;2023-04-16T00:14:11;11.20;66.20
5639;DHT22;2841;44.526;11.360;2023-04-16T00:16:37;11.20;66.40
5639;DHT22;2841;44.526;11.360;2023-04-16T00:19:04;11.20;66.40
5639;DHT22;2841;44.526;11.360;2023-04-16T00:21:31;11.20;66.40
5639;DHT22;2841;44.526;11.360;2023-04-16T00:23:58;11.20;66.40
5639;DHT22;2841;44.526;11.360;2023-04-16T00:26:24;11.30;66.40
5639;DHT22;2841;44.526;11.360;2023-04-16T00:28:51;11.30;66.40
5639;DHT22;2841;44.526;11.360;2023-04-16T00:31:26;11.30;66.30
5639;DHT22;2841;44.526;11.360;2023-04-16T00:33:53;11.30;66.90
5639;DHT22;2841;44.526;11.360;2023-04-16T00:36:19;11.30;66.40
5639;DHT22;2841;44.526;11.360;2023-04-16T00:38:46;11.30;66.50
5639;DHT22;2841;44.526;11.360;2023-04-16T00:41:13;11.20;66.50
5639;DHT22;2841;44.526;11.360;2023-04-16T00:43:40;11.10;67.00
5639;DHT22;2841;44.526;11.360;2023-04-16T00:46:07;11.10;66.90
5639;DHT22;2841;44.526;11.360;2023-04-16T00:48:35;11.10;67.00
5639;DHT22;2841;44.526;11.360;2023-04-16T00:51:03;11.20;67.10
5639;DHT22;2841;44.526;11.360;2023-04-16T00:53:30;11.20;67.00
5639;DHT22;2841;44.526;11.360;2023-04-16T00:55:57;11.20;67.00
5639;DHT22;2841;44.526;11.360;2023-04-16T00:58:24;11.20;66.90
5639;DHT22;2841;44.526;11.360;2023-04-16T01:00:51;11.20;67.10
5639;DHT22;2841;44.526;11.360;2023-04-16T01:03:17;11.20;67.20
5639;DHT22;2841;44.526;11.360;2023-04-16T01:05:45;11.20;67.30
5639;DHT22;2841;44.526;11.360;2023-04-16T01:08:14;11.20;67.50
5639;DHT22;2841;44.526;11.360;2023-04-16T01:10:41;11.20;67.50
5639;DHT22;2841;44.526;11.360;2023-04-16T01:13:08;11.20;67.60
5639;DHT22;2841;44.526;11.360;2023-04-16T01:15:34;11.10;67.70
5639;DHT22;2841;44.526;11.360;2023-04-16T01:18:01;11.20;67.90
5639;DHT22;2841;44.526;11.360;2023-04-16T01:20:28;11.10;67.90
5639;DHT22;2841;44.526;11.360;2023-04-16T01:22:56;11.10;68.30
5639;DHT22;2841;44.526;11.360;2023-04-16T01:25:23;11.00;68.10
5639;DHT22;2841;44.526;11.360;2023-04-16T01:27:49;11.00;68.40
5639;DHT22;2841;44.526;11.360;2023-04-16T01:30:19;10.90;68.40
5639;DHT22;2841;44.526;11.360;2023-04-16T01:32:45;10.90;68.80
5639;DHT22;2841;44.526;11.360;2023-04-16T01:35:12;10.90;68.70
5639;DHT22;2841;44.526;11.360;2023-04-16T01:37:39;11.00;68.80
5639;DHT22;2841;44.526;11.360;2023-04-16T01:40:08;11.00;68.70
5639;DHT22;2841;44.526;11.360;2023-04-16T01:42:34;11.00;68.70
5639;DHT22;2841;44.526;11.360;2023-04-16T01:45:01;11.10;68.70
5639;DHT22;2841;44.526;11.360;2023-04-16T01:47:28;11.10;68.70
5639;DHT22;2841;44.526;11.360;2023-04-16T01:49:55;11.10;68.60
5639;DHT22;2841;44.526;11.360;2023-04-16T01:52:22;11.10;68.70
5639;DHT22;2841;44.526;11.360;2023-04-16T01:54:48;11.10;68.80
5639;DHT22;2841;44.526;11.360;2023-04-16T01:57:16;11.10;68.80
5639;DHT22;2841;44.526;11.360;2023-04-16T01:59:43;11.20;68.90
5639;DHT22;2841;44.526;11.360;2023-04-16T02:02:11;11.20;68.90
5639;DHT22;2841;44.526;11.360;2023-04-16T02:04:39;11.20;68.90
5639;DHT22;2841;44.526;11.360;2023-04-16T02:07:06;11.20;68.90
5639;DHT22;2841;44.526;11.360;2023-04-16T02:09:33;11.20;69.10
5639;DHT22;2841;44.526;11.360;2023-04-16T02:12:00;11.10;69.00
5639;DHT22;2841;44.526;11.360;2023-04-16T02:14:29;11.10;69.10
5639;DHT22;2841;44.526;11.360;2023-04-16T02:16:55;11.10;69.30
5639;DHT22;2841;44.526;11.360;2023-04-16T02:19:22;11.00;69.30
5639;DHT22;2841;44.526;11.360;2023-04-16T02:21:50;11.00;69.40
5639;DHT22;2841;44.526;11.360;2023-04-16T02:24:16;11.00;69.50
5639;DHT22;2841;44.526;11.360;2023-04-16T02:26:43;10.90;69.50
5639;DHT22;2841;44.526;11.360;2023-04-16T02:29:10;10.90;69.70
5639;DHT22;2841;44.526;11.360;2023-04-16T02:31:38;10.80;69.80
5639;DHT22;2841;44.526;11.360;2023-04-16T02:34:05;10.80;69.90
5639;DHT22;2841;44.526;11.360;2023-04-16T02:36:32;10.80;70.30
5639;DHT22;2841;44.526;11.360;2023-04-16T02:38:59;10.80;70.10
5639;DHT22;2841;44.526;11.360;2023-04-16T02:41:26;10.80;70.10
5639;DHT22;2841;44.526;11.360;2023-04-16T02:43:52;10.80;70.10
5639;DHT22;2841;44.526;11.360;2023-04-16T02:46:19;10.80;70.10
5639;DHT22;2841;44.526;11.360;2023-04-16T02:48:47;10.80;70.30
5639;DHT22;2841;44.526;11.360;2023-04-16T02:51:14;10.80;70.40
5639;DHT22;2841;44.526;11.360;2023-04-16T02:53:40;10.70;70.40
5639;DHT22;2841;44.526;11.360;2023-04-16T02:56:10;10.70;70.50
5639;DHT22;2841;44.526;11.360;2023-04-16T02:58:37;10.70;70.70
5639;DHT22;2841;44.526;11.360;2023-04-16T03:01:03;10.70;70.70
5639;DHT22;2841;44.526;11.360;2023-04-16T03:03:30;10.70;70.70
5639;DHT22;2841;44.526;11.360;2023-04-16T03:05:58;10.70;70.90
5639;DHT22;2841;44.526;11.360;2023-04-16T03:08:25;10.70;71.00
5639;DHT22;2841;44.526;11.360;2023-04-16T03:10:52;10.70;71.00
5639;DHT22;2841;44.526;11.360;2023-04-16T03:13:18;10.70;71.10
5639;DHT22;2841;44.526;11.360;2023-04-16T03:15:46;10.80;71.00
5639;DHT22;2841;44.526;11.360;2023-04-16T03:18:13;10.80;71.00
5639;DHT22;2841;44.526;11.360;2023-04-16T03:20:40;10.80;71.00
5639;DHT22;2841;44.526;11.360;2023-04-16T03:23:08;10.70;71.00
5639;DHT22;2841;44.526;11.360;2023-04-16T03:25:35;10.70;71.00
5639;DHT22;2841;44.526;11.360;2023-04-16T03:28:04;10.60;71.20
5639;DHT22;2841;44.526;11.360;2023-04-16T03:30:31;10.60;71.20
5639;DHT22;2841;44.526;11.360;2023-04-16T03:32:58;10.60;71.50
5639;DHT22;2841;44.526;11.360;2023-04-16T03:35:25;10.50;71.60
5639;DHT22;2841;44.526;11.360;2023-04-16T03:37:52;10.50;71.90
5639;DHT22;2841;44.526;11.360;2023-04-16T03:40:20;10.40;71.80
5639;DHT22;2841;44.526;11.360;2023-04-16T03:42:47;10.40;71.80
5639;DHT22;2841;44.526;11.360;2023-04-16T03:45:14;10.40;71.90
5639;DHT22;2841;44.526;11.360;2023-04-16T03:47:40;10.40;72.00
5639;DHT22;2841;44.526;11.360;2023-04-16T03:50:08;10.40;72.00
5639;DHT22;2841;44.526;11.360;2023-04-16T03:52:35;10.40;71.90
5639;DHT22;2841;44.526;11.360;2023-04-16T03:55:02;10.30;71.90
5639;DHT22;2841;44.526;11.360;2023-04-16T03:57:31;10.30;72.10
5639;DHT22;2841;44.526;11.360;2023-04-16T03:59:57;10.30;72.20
5639;DHT22;2841;44.526;11.360;2023-04-16T04:02:24;10.20;72.20
5639;DHT22;2841;44.526;11.360;2023-04-16T04:04:51;10.20;72.30
5639;DHT22;2841;44.526;11.360;2023-04-16T04:07:18;10.20;72.50
5639;DHT22;2841;44.526;11.360;2023-04-16T04:09:44;10.20;72.50
5639;DHT22;2841;44.526;11.360;2023-04-16T04:12:11;10.20;72.50
5639;DHT22;2841;44.526;11.360;2023-04-16T04:14:39;10.10;72.50
5639;DHT22;2841;44.526;11.360;2023-04-16T04:17:06;10.10;72.60
5639;DHT22;2841;44.526;11.360;2023-04-16T04:19:33;10.00;72.70
5639;DHT22;2841;44.526;11.360;2023-04-16T04:22:00;9.90;73.90
5639;DHT22;2841;44.526;11.360;2023-04-16T04:24:27;10.00;73.10
5639;DHT22;2841;44.526;11.360;2023-04-16T04:26:53;10.00;73.10
5639;DHT22;2841;44.526;11.360;2023-04-16T04:29:22;10.00;73.00
5639;DHT22;2841;44.526;11.360;2023-04-16T04:31:50;10.10;73.10
5639;DHT22;2841;44.526;11.360;2023-04-16T04:34:17;10.10;73.10
5639;DHT22;2841;44.526;11.360;2023-04-16T04:36:44;10.10;73.20
5639;DHT22;2841;44.526;11.360;2023-04-16T04:39:10;10.10;73.30
5639;DHT22;2841;44.526;11.360;2023-04-16T04:41:37;10.10;73.30
5639;DHT22;2841;44.526;11.360;2023-04-16T04:44:04;10.00;73.20
5639;DHT22;2841;44.526;11.360;2023-04-16T04:46:31;10.10;73.40
5639;DHT22;2841;44.526;11.360;2023-04-16T04:48:59;10.10;73.50
5639;DHT22;2841;44.526;11.360;2023-04-16T04:51:26;10.20;73.70
5639;DHT22;2841;44.526;11.360;2023-04-16T04:53:53;10.20;73.60
5639;DHT22;2841;44.526;11.360;2023-04-16T04:56:20;10.20;73.70
5639;DHT22;2841;44.526;11.360;2023-04-16T04:58:48;10.20;73.90
5639;DHT22;2841;44.526;11.360;2023-04-16T05:01:14;10.30;73.90
5639;DHT22;2841;44.526;11.360;2023-04-16T05:03:41;10.40;73.90
5639;DHT22;2841;44.526;11.360;2023-04-16T05:06:09;10.30;73.70
5639;DHT22;2841;44.526;11.360;2023-04-16T05:08:36;10.40;73.90
5639;DHT22;2841;44.526;11.360;2023-04-16T05:11:03;10.40;74.10
5639;DHT22;2841;44.526;11.360;2023-04-16T05:13:30;10.40;74.20
5639;DHT22;2841;44.526;11.360;2023-04-16T05:15:58;10.50;74.40
5639;DHT22;2841;44.526;11.360;2023-04-16T05:18:25;10.40;74.20
5639;DHT22;2841;44.526;11.360;2023-04-16T05:20:52;10.50;74.50
5639;DHT22;2841;44.526;11.360;2023-04-16T05:23:20;10.50;74.60
5639;DHT22;2841;44.526;11.360;2023-04-16T05:25:47;10.60;74.80
5639;DHT22;2841;44.526;11.360;2023-04-16T05:28:13;10.60;75.20
5639;DHT22;2841;44.526;11.360;2023-04-16T05:30:40;10.70;74.80
5639;DHT22;2841;44.526;11.360;2023-04-16T05:33:07;10.80;74.70
5639;DHT22;2841;44.526;11.360;2023-04-16T05:35:34;10.90;74.90
5639;DHT22;2841;44.526;11.360;2023-04-16T05:38:00;10.90;74.60
5639;DHT22;2841;44.526;11.360;2023-04-16T05:40:30;11.00;74.50
5639;DHT22;2841;44.526;11.360;2023-04-16T05:42:57;11.00;74.50
5639;DHT22;2841;44.526;11.360;2023-04-16T05:45:23;11.10;74.70
5639;DHT22;2841;44.526;11.360;2023-04-16T05:47:50;11.10;74.60
5639;DHT22;2841;44.526;11.360;2023-04-16T05:50:17;11.20;74.60
5639;DHT22;2841;44.526;11.360;2023-04-16T05:52:43;11.20;74.70
5639;DHT22;2841;44.526;11.360;2023-04-16T05:55:10;11.30;74.80
5639;DHT22;2841;44.526;11.360;2023-04-16T05:57:38;11.30;74.60
5639;DHT22;2841;44.526;11.360;2023-04-16T06:00:06;11.30;74.80
5639;DHT22;2841;44.526;11.360;2023-04-16T06:02:32;11.40;75.00
5639;DHT22;2841;44.526;11.360;2023-04-16T06:04:59;11.40;75.60
5639;DHT22;2841;44.526;11.360;2023-04-16T06:07:26;11.40;74.90
5639;DHT22;2841;44.526;11.360;2023-04-16T06:09:53;11.40;75.00
5639;DHT22;2841;44.526;11.360;2023-04-16T06:12:20;11.40;75.00
5639;DHT22;2841;44.526;11.360;2023-04-16T06:14:48;11.50;75.10
5639;DHT22;2841;44.526;11.360;2023-04-16T06:17:15;11.50;75.20
5639;DHT22;2841;44.526;11.360;2023-04-16T06:19:41;11.50;75.20
5639;DHT22;2841;44.526;11.360;2023-04-16T06:22:08;11.60;75.40
5639;DHT22;2841;44.526;11.360;2023-04-16T06:24:35;11.60;75.30
5639;DHT22;2841;44.526;11.360;2023-04-16T06:27:02;11.60;75.30
5639;DHT22;2841;44.526;11.360;2023-04-16T06:29:28;11.70;75.40
5639;DHT22;2841;44.526;11.360;2023-04-16T06:31:56;11.70;75.20
5639;DHT22;2841;44.526;11.360;2023-04-16T06:34:23;11.80;75.30
5639;DHT22;2841;44.526;11.360;2023-04-16T06:36:50;11.80;75.20
5639;DHT22;2841;44.526;11.360;2023-04-16T06:39:17;11.80;75.20
5639;DHT22;2841;44.526;11.360;2023-04-16T06:41:46;11.90;75.10
5639;DHT22;2841;44.526;11.360;2023-04-16T06:44:12;11.80;74.80
5639;DHT22;2841;44.526;11.360;2023-04-16T06:46:39;11.80;75.00
5639;DHT22;2841;44.526;11.360;2023-04-16T06:49:07;11.90;75.20
5639;DHT22;2841;44.526;11.360;2023-04-16T06:51:34;12.00;74.80
5639;DHT22;2841;44.526;11.360;2023-04-16T06:54:01;12.00;74.80
5639;DHT22;2841;44.526;11.360;2023-04-16T06:56:27;12.10;74.90
5639;DHT22;2841;44.526;11.360;2023-04-16T06:58:54;12.20;74.70
5639;DHT22;2841;44.526;11.360;2023-04-16T07:01:23;12.30;74.60
5639;DHT22;2841;44.526;11.360;2023-04-16T07:03:50;12.30;74.10
5639;DHT22;2841;44.526;11.360;2023-04-16T07:06:18;12.40;74.00
5639;DHT22;2841;44.526;11.360;2023-04-16T07:08:45;12.40;74.10
5639;DHT22;2841;44.526;11.360;2023-04-16T07:11:11;12.50;73.90
5639;DHT22;2841;44.526;11.360;2023-04-16T07:13:38;12.50;73.50
5639;DHT22;2841;44.526;11.360;2023-04-16T07:16:05;12.50;73.60
5639;DHT22;2841;44.526;11.360;2023-04-16T07:18:33;12.60;73.50
5639;DHT22;2841;44.526;11.360;2023-04-16T07:20:59;12.60;73.10
5639;DHT22;2841;44.526;11.360;2023-04-16T07:23:27;12.60;73.00
5639;DHT22;2841;44.526;11.360;2023-04-16T07:25:54;12.70;73.10
5639;DHT22;2841;44.526;11.360;2023-04-16T07:28:21;12.80;72.70
5639;DHT22;2841;44.526;11.360;2023-04-16T07:30:49;12.80;72.80
5639;DHT22;2841;44.526;11.360;2023-04-16T07:33:16;12.90;72.70
5639;DHT22;2841;44.526;11.360;2023-04-16T07:35:43;12.90;72.20
5639;DHT22;2841;44.526;11.360;2023-04-16T07:38:10;13.00;72.30
5639;DHT22;2841;44.526;11.360;2023-04-16T07:40:38;13.00;72.00
5639;DHT22;2841;44.526;11.360;2023-04-16T07:43:05;13.00;71.50
5639;DHT22;2841;44.526;11.360;2023-04-16T07:45:32;13.10;71.60
5639;DHT22;2841;44.526;11.360;2023-04-16T07:47:58;13.10;71.70
5639;DHT22;2841;44.526;11.360;2023-04-16T07:50:25;13.30;72.00
5639;DHT22;2841;44.526;11.360;2023-04-16T07:52:52;13.40;71.70
5639;DHT22;2841;44.526;11.360;2023-04-16T07:55:19;13.40;70.70
5639;DHT22;2841;44.526;11.360;2023-04-16T07:57:47;13.40;71.00
5639;DHT22;2841;44.526;11.360;2023-04-16T08:00:14;13.50;70.90
5639;DHT22;2841;44.526;11.360;2023-04-16T08:02:41;13.50;70.50
5639;DHT22;2841;44.526;11.360;2023-04-16T08:05:08;13.60;70.40
5639;DHT22;2841;44.526;11.360;2023-04-16T08:07:36;13.70;70.20
5639;DHT22;2841;44.526;11.360;2023-04-16T08:10:03;13.70;70.00
5639;DHT22;2841;44.526;11.360;2023-04-16T08:12:30;13.70;70.20
5639;DHT22;2841;44.526;11.360;2023-04-16T08:14:58;13.80;70.20
5639;DHT22;2841;44.526;11.360;2023-04-16T08:17:25;13.90;70.20
5639;DHT22;2841;44.526;11.360;2023-04-16T08:19:52;14.00;70.10
5639;DHT22;2841;44.526;11.360;2023-04-16T08:22:19;14.10;69.80
5639;DHT22;2841;44.526;11.360;2023-04-16T08:24:46;14.20;70.40
5639;DHT22;2841;44.526;11.360;2023-04-16T08:27:13;14.20;69.60
5639;DHT22;2841;44.526;11.360;2023-04-16T08:29:40;14.30;69.60
5639;DHT22;2841;44.526;11.360;2023-04-16T08:32:08;14.40;69.30
5639;DHT22;2841;44.526;11.360;2023-04-16T08:34:35;14.50;69.20
5639;DHT22;2841;44.526;11.360;2023-04-16T08:37:02;14.60;69.30
5639;DHT22;2841;44.526;11.360;2023-04-16T08:39:29;14.70;69.30
5639;DHT22;2841;44.526;11.360;2023-04-16T08:41:55;14.80;69.10
5639;DHT22;2841;44.526;11.360;2023-04-16T08:44:24;14.90;69.10
5639;DHT22;2841;44.526;11.360;2023-04-16T08:46:52;15.10;68.90
5639;DHT22;2841;44.526;11.360;2023-04-16T08:49:23;15.10;68.40
5639;DHT22;2841;44.526;11.360;2023-04-16T08:51:50;15.20;68.40
5639;DHT22;2841;44.526;11.360;2023-04-16T08:54:20;15.30;68.30
5639;DHT22;2841;44.526;11.360;2023-04-16T08:56:51;15.30;68.20
5639;DHT22;2841;44.526;11.360;2023-04-16T08:59:18;15.50;67.90
5639;DHT22;2841;44.526;11.360;2023-04-16T09:01:45;15.60;67.80
5639;DHT22;2841;44.526;11.360;2023-04-16T09:04:13;15.70;67.70
5639;DHT22;2841;44.526;11.360;2023-04-16T09:06:42;15.80;67.30
5639;DHT22;2841;44.526;11.360;2023-04-16T09:09:09;15.90;67.40
5639;DHT22;2841;44.526;11.360;2023-04-16T09:11:36;16.00;67.20
5639;DHT22;2841;44.526;11.360;2023-04-16T09:14:04;16.10;67.20
5639;DHT22;2841;44.526;11.360;2023-04-16T09:16:34;16.20;66.80
5639;DHT22;2841;44.526;11.360;2023-04-16T09:19:01;16.30;66.60
5639;DHT22;2841;44.526;11.360;2023-04-16T09:21:28;16.40;66.60
5639;DHT22;2841;44.526;11.360;2023-04-16T09:23:57;16.50;66.50
5639;DHT22;2841;44.526;11.360;2023-04-16T09:26:25;16.60;66.50
5639;DHT22;2841;44.526;11.360;2023-04-16T09:28:53;16.60;65.80
5639;DHT22;2841;44.526;11.360;2023-04-16T09:31:20;16.60;65.70
5639;DHT22;2841;44.526;11.360;2023-04-16T09:33:59;16.70;65.70
5639;DHT22;2841;44.526;11.360;2023-04-16T09:36:26;16.80;65.70
5639;DHT22;2841;44.526;11.360;2023-04-16T09:38:53;16.80;65.60
5639;DHT22;2841;44.526;11.360;2023-04-16T09:41:25;16.90;65.60
5639;DHT22;2841;44.526;11.360;2023-04-16T09:43:53;17.00;65.30
5639;DHT22;2841;44.526;11.360;2023-04-16T09:46:21;17.10;65.10
5639;DHT22;2841;44.526;11.360;2023-04-16T09:48:48;17.20;65.10
5639;DHT22;2841;44.526;11.360;2023-04-16T09:51:15;17.30;64.80
5639;DHT22;2841;44.526;11.360;2023-04-16T09:53:42;17.30;63.60
5639;DHT22;2841;44.526;11.360;2023-04-16T09:56:08;17.40;63.10
5639;DHT22;2841;44.526;11.360;2023-04-16T09:58:37;17.40;63.30
5639;DHT22;2841;44.526;11.360;2023-04-16T10:01:06;17.50;63.40
5639;DHT22;2841;44.526;11.360;2023-04-16T10:03:34;17.60;62.90
5639;DHT22;2841;44.526;11.360;2023-04-16T10:06:03;17.80;63.10
5639;DHT22;2841;44.526;11.360;2023-04-16T10:08:32;17.70;62.70
5639;DHT22;2841;44.526;11.360;2023-04-16T10:10:59;17.60;62.80
5639;DHT22;2841;44.526;11.360;2023-04-16T10:13:26;17.70;62.80
5639;DHT22;2841;44.526;11.360;2023-04-16T10:15:56;17.70;62.70
5639;DHT22;2841;44.526;11.360;2023-04-16T10:18:23;17.50;62.20
5639;DHT22;2841;44.526;11.360;2023-04-16T10:20:50;17.50;62.50
5639;DHT22;2841;44.526;11.360;2023-04-16T10:23:18;17.80;62.50
5639;DHT22;2841;44.526;11.360;2023-04-16T10:25:45;18.00;62.20
5639;DHT22;2841;44.526;11.360;2023-04-16T10:28:13;18.30;61.80
5639;DHT22;2841;44.526;11.360;2023-04-16T10:30:40;18.50;61.30
5639;DHT22;2841;44.526;11.360;2023-04-16T10:33:09;18.70;61.10
5639;DHT22;2841;44.526;11.360;2023-04-16T10:35:38;18.80;61.10
5639;DHT22;2841;44.526;11.360;2023-04-16T10:38:19;19.00;60.80
5639;DHT22;2841;44.526;11.360;2023-04-16T10:40:46;19.20;60.70
5639;DHT22;2841;44.526;11.360;2023-04-16T10:43:16;19.10;60.20
5639;DHT22;2841;44.526;11.360;2023-04-16T10:45:43;19.20;60.10
5639;DHT22;2841;44.526;11.360;2023-04-16T10:48:11;19.30;60.20
5639;DHT22;2841;44.526;11.360;2023-04-16T10:50:39;19.40;60.00
5639;DHT22;2841;44.526;11.360;2023-04-16T10:53:18;19.60;60.00
5639;DHT22;2841;44.526;11.360;2023-04-16T10:55:58;19.60;59.80
5639;DHT22;2841;44.526;11.360;2023-04-16T10:58:35;19.50;59.80
5639;DHT22;2841;44.526;11.360;2023-04-16T11:01:05;19.40;59.60
5639;DHT22;2841;44.526;11.360;2023-04-16T11:03:34;19.40;59.70
5639;DHT22;2841;44.526;11.360;2023-04-16T11:06:11;19.20;59.60
5639;DHT22;2841;44.526;11.360;2023-04-16T11:08:39;19.00;59.80
5639;DHT22;2841;44.526;11.360;2023-04-16T11:11:06;19.10;59.70
5639;DHT22;2841;44.526;11.360;2023-04-16T11:13:34;19.20;59.70
5639;DHT22;2841;44.526;11.360;2023-04-16T11:16:02;19.50;59.50
5639;DHT22;2841;44.526;11.360;2023-04-16T11:18:28;19.70;59.20
5639;DHT22;2841;44.526;11.360;2023-04-16T11:20:56;19.50;58.60
5639;DHT22;2841;44.526;11.360;2023-04-16T11:23:23;19.10;58.60
5639;DHT22;2841;44.526;11.360;2023-04-16T11:25:51;19.10;58.90
5639;DHT22;2841;44.526;11.360;2023-04-16T11:28:30;19.20;58.90
5639;DHT22;2841;44.526;11.360;2023-04-16T11:30:57;19.50;58.60
5639;DHT22;2841;44.526;11.360;2023-04-16T11:33:24;19.60;58.00
5639;DHT22;2841;44.526;11.360;2023-04-16T11:35:55;19.60;57.80
5639;DHT22;2841;44.526;11.360;2023-04-16T11:38:32;19.70;57.70
5639;DHT22;2841;44.526;11.360;2023-04-16T11:41:00;19.90;57.80
5639;DHT22;2841;44.526;11.360;2023-04-16T11:43:26;20.30;57.50
5639;DHT22;2841;44.526;11.360;2023-04-16T11:45:56;20.60;57.00
5639;DHT22;2841;44.526;11.360;2023-04-16T11:48:23;20.60;56.70
5639;DHT22;2841;44.526;11.360;2023-04-16T11:50:56;20.60;56.40
5639;DHT22;2841;44.526;11.360;2023-04-16T11:53:23;20.50;56.20
5639;DHT22;2841;44.526;11.360;2023-04-16T11:55:51;20.30;56.10
5639;DHT22;2841;44.526;11.360;2023-04-16T11:58:18;20.30;56.00
5639;DHT22;2841;44.526;11.360;2023-04-16T12:00:46;20.40;56.00
5639;DHT22;2841;44.526;11.360;2023-04-16T12:03:13;20.50;55.80
5639;DHT22;2841;44.526;11.360;2023-04-16T12:05:40;20.70;55.90
5639;DHT22;2841;44.526;11.360;2023-04-16T12:08:08;21.10;55.80
5639;DHT22;2841;44.526;11.360;2023-04-16T12:10:35;21.30;55.30
5639;DHT22;2841;44.526;11.360;2023-04-16T12:13:10;21.10;54.70
5639;DHT22;2841;44.526;11.360;2023-04-16T12:15:47;20.90;54.80
5639;DHT22;2841;44.526;11.360;2023-04-16T12:18:14;21.00;54.60
5639;DHT22;2841;44.526;11.360;2023-04-16T12:20:41;21.10;54.40
5639;DHT22;2841;44.526;11.360;2023-04-16T12:23:08;21.30;53.80
5639;DHT22;2841;44.526;11.360;2023-04-16T12:25:35;21.40;53.80
5639;DHT22;2841;44.526;11.360;2023-04-16T12:28:02;21.50;53.60
5639;DHT22;2841;44.526;11.360;2023-04-16T12:30:31;21.60;53.30
5639;DHT22;2841;44.526;11.360;2023-04-16T12:33:13;21.80;53.30
5639;DHT22;2841;44.526;11.360;2023-04-16T12:35:40;21.80;52.90
5639;DHT22;2841;44.526;11.360;2023-04-16T12:38:07;21.40;52.80
5639;DHT22;2841;44.526;11.360;2023-04-16T12:40:34;21.20;53.20
5639;DHT22;2841;44.526;11.360;2023-04-16T12:43:01;21.20;53.10
5639;DHT22;2841;44.526;11.360;2023-04-16T12:45:28;21.30;52.60
5639;DHT22;2841;44.526;11.360;2023-04-16T12:47:56;21.40;52.60
5639;DHT22;2841;44.526;11.360;2023-04-16T12:50:23;21.60;52.40
5639;DHT22;2841;44.526;11.360;2023-04-16T12:52:50;21.60;52.10
5639;DHT22;2841;44.526;11.360;2023-04-16T12:55:17;21.60;52.00
5639;DHT22;2841;44.526;11.360;2023-04-16T12:57:44;21.60;51.80
5639;DHT22;2841;44.526;11.360;2023-04-16T13:00:14;21.60;51.80
5639;DHT22;2841;44.526;11.360;2023-04-16T13:02:41;21.60;51.60
5639;DHT22;2841;44.526;11.360;2023-04-16T13:05:09;21.60;51.40
5639;DHT22;2841;44.526;11.360;2023-04-16T13:07:37;21.70;51.20
5639;DHT22;2841;44.526;11.360;2023-04-16T13:10:04;21.50;51.10
5639;DHT22;2841;44.526;11.360;2023-04-16T13:12:31;21.30;51.00
5639;DHT22;2841;44.526;11.360;2023-04-16T13:14:58;21.20;51.10
5639;DHT22;2841;44.526;11.360;2023-04-16T13:17:27;21.20;50.90
5639;DHT22;2841;44.526;11.360;2023-04-16T13:19:55;21.40;50.80
5639;DHT22;2841;44.526;11.360;2023-04-16T13:22:23;21.40;50.40
5639;DHT22;2841;44.526;11.360;2023-04-16T13:24:50;21.40;50.40
5639;DHT22;2841;44.526;11.360;2023-04-16T13:27:16;21.50;50.20
5639;DHT22;2841;44.526;11.360;2023-04-16T13:29:43;21.50;49.80
5639;DHT22;2841;44.526;11.360;2023-04-16T13:32:10;21.50;49.70
5639;DHT22;2841;44.526;11.360;2023-04-16T13:34:38;21.50;49.60
5639;DHT22;2841;44.526;11.360;2023-04-16T13:37:04;21.60;49.60
5639;DHT22;2841;44.526;11.360;2023-04-16T13:39:33;21.50;49.10
5639;DHT22;2841;44.526;11.360;2023-04-16T13:41:59;21.40;49.00
5639;DHT22;2841;44.526;11.360;2023-04-16T13:44:27;21.40;49.10
5639;DHT22;2841;44.526;11.360;2023-04-16T13:46:53;21.60;49.00
5639;DHT22;2841;44.526;11.360;2023-04-16T13:49:20;21.70;48.70
5639;DHT22;2841;44.526;11.360;2023-04-16T13:51:47;21.70;48.40
5639;DHT22;2841;44.526;11.360;2023-04-16T13:54:14;21.80;48.30
5639;DHT22;2841;44.526;11.360;2023-04-16T13:56:42;21.60;48.20
5639;DHT22;2841;44.526;11.360;2023-04-16T13:59:09;21.40;48.30
5639;DHT22;2841;44.526;11.360;2023-04-16T14:01:36;21.30;48.10
5639;DHT22;2841;44.526;11.360;2023-04-16T14:04:03;21.30;48.30
5639;DHT22;2841;44.526;11.360;2023-04-16T14:06:30;21.60;48.00
5639;DHT22;2841;44.526;11.360;2023-04-16T14:08:57;21.80;47.90
5639;DHT22;2841;44.526;11.360;2023-04-16T14:11:24;22.10;47.80
5639;DHT22;2841;44.526;11.360;2023-04-16T14:13:52;22.20;47.40
5639;DHT22;2841;44.526;11.360;2023-04-16T14:16:19;22.10;47.20
5639;DHT22;2841;44.526;11.360;2023-04-16T14:18:45;22.20;47.30
5639;DHT22;2841;44.526;11.360;2023-04-16T14:21:12;22.30;47.10
5639;DHT22;2841;44.526;11.360;2023-04-16T14:23:39;22.40;47.00
5639;DHT22;2841;44.526;11.360;2023-04-16T14:26:05;22.50;46.70
5639;DHT22;2841;44.526;11.360;2023-04-16T14:28:32;22.50;46.80
5639;DHT22;2841;44.526;11.360;2023-04-16T14:31:01;22.70;46.80
5639;DHT22;2841;44.526;11.360;2023-04-16T14:33:27;22.80;46.70
5639;DHT22;2841;44.526;11.360;2023-04-16T14:35:54;23.00;46.60
5639;DHT22;2841;44.526;11.360;2023-04-16T14:38:21;23.00;46.20
5639;DHT22;2841;44.526;11.360;2023-04-16T14:40:48;23.00;46.20
5639;DHT22;2841;44.526;11.360;2023-04-16T14:43:14;23.10;46.30
5639;DHT22;2841;44.526;11.360;2023-04-16T14:45:41;23.20;45.90
5639;DHT22;2841;44.526;11.360;2023-04-16T14:48:10;23.30;45.80
5639;DHT22;2841;44.526;11.360;2023-04-16T14:50:36;23.50;45.80
5639;DHT22;2841;44.526;11.360;2023-04-16T14:53:07;23.60;45.30
5639;DHT22;2841;44.526;11.360;2023-04-16T14:55:34;23.80;45.40
5639;DHT22;2841;44.526;11.360;2023-04-16T14:58:01;24.00;45.30
5639;DHT22;2841;44.526;11.360;2023-04-16T15:00:28;24.20;44.90
5639;DHT22;2841;44.526;11.360;2023-04-16T15:02:55;24.30;44.90
5639;DHT22;2841;44.526;11.360;2023-04-16T15:05:23;24.50;44.80
5639;DHT22;2841;44.526;11.360;2023-04-16T15:07:50;24.70;44.70
5639;DHT22;2841;44.526;11.360;2023-04-16T15:10:17;24.90;44.40
5639;DHT22;2841;44.526;11.360;2023-04-16T15:12:44;25.00;44.20
5639;DHT22;2841;44.526;11.360;2023-04-16T15:15:10;25.10;44.10
5639;DHT22;2841;44.526;11.360;2023-04-16T15:17:37;25.30;43.90
5639;DHT22;2841;44.526;11.360;2023-04-16T15:20:05;25.30;43.80
5639;DHT22;2841;44.526;11.360;2023-04-16T15:22:34;25.40;43.80
5639;DHT22;2841;44.526;11.360;2023-04-16T15:25:01;25.60;43.50
5639;DHT22;2841;44.526;11.360;2023-04-16T15:27:28;26.10;43.20
5639;DHT22;2841;44.526;11.360;2023-04-16T15:29:55;27.00;41.80
5639;DHT22;2841;44.526;11.360;2023-04-16T15:32:22;27.60;41.40
5639;DHT22;2841;44.526;11.360;2023-04-16T15:34:48;27.60;41.10
5639;DHT22;2841;44.526;11.360;2023-04-16T15:37:15;27.70;41.50
5639;DHT22;2841;44.526;11.360;2023-04-16T15:39:43;28.00;41.50
5639;DHT22;2841;44.526;11.360;2023-04-16T15:42:10;27.80;41.40
5639;DHT22;2841;44.526;11.360;2023-04-16T15:44:37;27.90;41.70
5639;DHT22;2841;44.526;11.360;2023-04-16T15:47:04;28.20;41.50